Time;durP1;ratioP1;P1;durP2;ratioP2;P2;SDS_P1;SDS_P2;PMS_P1;PMS_P2;Temp;Humidity;BMP_temperature;BMP_pressure;BME280_temperature;BME280_humidity;BME280_pressure;Samples;Min_cycle;Max_cycle;Signal;HPM_P1;HPM_P2
2023/10/01 00:00:05;;;;;;;7.90;4.67;;;12.10;99.90;;;;;;5094516;28;20396;-74
2023/10/01 00:02:32;;;;;;;8.40;4.40;;;12.10;99.90;;;;;;5094507;28;20158;-76
2023/10/01 00:04:57;;;;;;;6.83;3.93;;;12.10;99.90;;;;;;5093628;28;20420;-75
2023/10/01 00:07:23;;;;;;;12.10;3.93;;;12.20;99.90;;;;;;5093688;28;20399;-75
2023/10/01 00:09:48;;;;;;;4.63;3.50;;;12.10;99.90;;;;;;5094544;28;20162;-76
2023/10/01 00:12:14;;;;;;;6.87;3.97;;;12.10;99.90;;;;;;5094002;28;20173;-76
2023/10/01 00:14:39;;;;;;;8.90;5.53;;;12.10;99.90;;;;;;5075847;28;20165;-76
2023/10/01 00:17:05;;;;;;;4.20;3.70;;;12.10;99.90;;;;;;5093676;28;20198;-76
2023/10/01 00:19:32;;;;;;;5.13;3.50;;;12.10;99.90;;;;;;5093958;28;20185;-76
2023/10/01 00:21:58;;;;;;;8.03;4.20;;;12.10;99.90;;;;;;5093906;28;20526;-75
2023/10/01 00:24:23;;;;;;;4.80;3.90;;;12.10;99.90;;;;;;5093820;28;20404;-75
2023/10/01 00:26:51;;;;;;;6.07;3.63;;;12.10;99.90;;;;;;5093644;28;20198;-76
2023/10/01 00:29:17;;;;;;;6.40;3.07;;;12.00;99.90;;;;;;5075616;28;20197;-76
2023/10/01 00:31:44;;;;;;;4.60;3.37;;;12.10;99.90;;;;;;5093761;28;20403;-76
2023/10/01 00:34:09;;;;;;;3.40;3.10;;;12.10;99.90;;;;;;5093675;28;20396;-75
2023/10/01 00:36:35;;;;;;;5.97;3.10;;;12.00;99.90;;;;;;5093354;28;20458;-76
2023/10/01 00:39:02;;;;;;;4.20;3.43;;;12.00;99.90;;;;;;5093601;28;20161;-76
2023/10/01 00:41:28;;;;;;;4.00;3.07;;;12.00;99.90;;;;;;5093570;28;20254;-75
2023/10/01 00:43:55;;;;;;;4.97;3.03;;;12.00;99.90;;;;;;5093499;28;20427;-76
2023/10/01 00:46:21;;;;;;;4.00;3.00;;;12.00;99.90;;;;;;5093268;28;20178;-76
2023/10/01 00:48:48;;;;;;;3.93;2.73;;;12.00;99.90;;;;;;5075278;28;20917;-75
2023/10/01 00:51:15;;;;;;;4.40;3.40;;;11.90;99.90;;;;;;5093347;28;20573;-74
2023/10/01 00:53:40;;;;;;;4.00;3.03;;;11.90;99.90;;;;;;5093115;28;20424;-75
2023/10/01 00:56:06;;;;;;;8.00;4.10;;;11.90;99.90;;;;;;5092859;28;20466;-75
2023/10/01 00:58:32;;;;;;;6.87;3.73;;;11.90;99.90;;;;;;5093237;28;20162;-75
2023/10/01 01:00:57;;;;;;;5.80;4.07;;;11.80;99.90;;;;;;5093235;28;20162;-76
2023/10/01 01:03:23;;;;;;;3.90;3.30;;;11.90;99.90;;;;;;5093178;28;20166;-76
2023/10/01 01:08:46;;;;;;;6.27;4.20;;;11.90;99.90;;;;;;5092876;28;20208;-76
2023/10/01 01:11:15;;;;;;;4.37;3.10;;;11.90;99.90;;;;;;5093099;28;20396;-75
2023/10/01 01:13:45;;;;;;;21.50;3.63;;;11.90;99.90;;;;;;5092647;28;20506;-76
2023/10/01 01:16:14;;;;;;;6.67;4.07;;;11.90;99.90;;;;;;5092539;28;20971;-75
2023/10/01 01:18:42;;;;;;;6.10;3.50;;;11.90;99.90;;;;;;5092873;28;20403;-74
2023/10/01 01:21:13;;;;;;;4.60;3.30;;;11.90;99.90;;;;;;5092829;28;20395;-75
2023/10/01 01:23:41;;;;;;;5.43;2.90;;;11.90;99.90;;;;;;5092627;28;20549;-75
2023/10/01 01:26:13;;;;;;;5.30;4.00;;;11.90;99.90;;;;;;5074229;28;20496;-75
2023/10/01 01:28:41;;;;;;;3.50;3.20;;;11.90;99.90;;;;;;5074348;28;20554;-76
2023/10/01 01:31:08;;;;;;;6.13;3.37;;;11.90;99.90;;;;;;5092578;28;20894;-75
2023/10/01 01:33:40;;;;;;;5.13;3.23;;;11.90;99.90;;;;;;5092572;28;20406;-76
2023/10/01 01:36:09;;;;;;;6.03;3.30;;;11.90;99.90;;;;;;5092213;28;20579;-76
2023/10/01 01:38:37;;;;;;;4.93;3.30;;;11.80;99.90;;;;;;5092688;28;20411;-76
2023/10/01 01:41:04;;;;;;;7.00;3.63;;;11.80;99.90;;;;;;5074376;28;20415;-75
2023/10/01 01:43:31;;;;;;;4.00;3.37;;;11.80;99.90;;;;;;5074056;28;20415;-75
2023/10/01 01:46:03;;;;;;;7.63;3.90;;;11.80;99.90;;;;;;5092256;28;20532;-76
2023/10/01 01:50:58;;;;;;;5.73;3.70;;;11.80;99.90;;;;;;5092476;28;20395;-75
2023/10/01 01:53:34;;;;;;;5.17;3.80;;;11.80;99.90;;;;;;5092062;28;20264;-75
2023/10/01 01:56:04;;;;;;;6.53;3.80;;;11.80;99.90;;;;;;5091985;28;20610;-76
2023/10/01 01:58:32;;;;;;;5.27;3.47;;;11.90;99.90;;;;;;5074248;28;20428;-76
2023/10/01 02:01:07;;;;;;;6.50;3.93;;;11.90;99.90;;;;;;5092145;28;20482;-76
2023/10/01 02:03:34;;;;;;;4.60;3.50;;;11.80;99.90;;;;;;5051831;28;20416;-76
2023/10/01 02:06:00;;;;;;;4.50;3.40;;;11.90;99.90;;;;;;5051543;28;20503;-75
2023/10/01 02:08:44;;;;;;;6.47;4.20;;;11.90;99.90;;;;;;5051619;28;20397;-75
2023/10/01 02:11:09;;;;;;;9.27;4.33;;;11.90;99.90;;;;;;5051789;28;20542;-75
2023/10/01 02:13:40;;;;;;;6.80;4.17;;;11.90;99.90;;;;;;5051679;28;21067;-75
2023/10/01 02:18:56;;;;;;;6.07;3.27;;;11.90;99.90;;;;;;5051703;28;20409;-76
2023/10/01 02:21:44;;;;;;;6.53;2.97;;;11.90;99.90;;;;;;5051716;28;20448;-75
2023/10/01 02:24:14;;;;;;;5.63;3.40;;;11.90;99.90;;;;;;5050692;28;20473;-75
2023/10/01 02:26:41;;;;;;;4.80;3.77;;;11.90;99.90;;;;;;5051283;28;20417;-75
2023/10/01 02:29:08;;;;;;;8.60;4.00;;;11.90;99.90;;;;;;5035265;28;20416;-76
2023/10/01 02:31:39;;;;;;;4.57;3.13;;;11.90;99.90;;;;;;5055512;28;20413;-76
2023/10/01 02:34:08;;;;;;;3.90;3.00;;;11.90;99.90;;;;;;5055481;28;20405;-75
2023/10/01 02:36:36;;;;;;;4.43;3.70;;;11.90;99.90;;;;;;5055285;28;20489;-76
2023/10/01 02:39:11;;;;;;;7.47;4.47;;;11.80;99.90;;;;;;5055514;28;20413;-76
2023/10/01 02:41:38;;;;;;;6.80;3.47;;;11.80;99.90;;;;;;5055388;28;20405;-76
2023/10/01 02:44:04;;;;;;;10.37;4.40;;;11.80;99.90;;;;;;5055501;28;20409;-75
2023/10/01 02:46:29;;;;;;;8.30;4.43;;;11.80;99.90;;;;;;5055230;28;20475;-75
2023/10/01 02:48:59;;;;;;;5.40;3.30;;;11.80;99.90;;;;;;5055586;28;20817;-76
2023/10/01 02:51:37;;;;;;;3.23;2.63;;;11.70;99.90;;;;;;5055416;28;20262;-76
2023/10/01 02:54:06;;;;;;;5.23;3.50;;;11.70;99.90;;;;;;5055282;28;20838;-75
2023/10/01 02:56:52;;;;;;;4.83;2.80;;;11.70;99.90;;;;;;5054851;28;20484;-75
2023/10/01 02:59:18;;;;;;;7.80;3.20;;;11.70;99.90;;;;;;5055340;28;20424;-75
2023/10/01 03:01:47;;;;;;;7.00;3.47;;;11.80;99.90;;;;;;5054456;28;20451;-75
2023/10/01 03:04:17;;;;;;;6.10;3.50;;;11.80;99.90;;;;;;5054107;28;20393;-75
2023/10/01 03:06:55;;;;;;;8.27;3.47;;;11.80;99.90;;;;;;5053638;28;20429;-75
2023/10/01 03:09:22;;;;;;;4.83;3.30;;;11.80;99.90;;;;;;5055083;28;20416;-76
2023/10/01 03:11:53;;;;;;;5.83;2.80;;;11.90;99.90;;;;;;5037199;28;20948;-75
2023/10/01 03:14:25;;;;;;;4.67;3.40;;;11.90;99.90;;;;;;5054877;28;20405;-75
2023/10/01 03:16:54;;;;;;;4.70;3.03;;;12.00;99.90;;;;;;5036586;28;20457;-74
2023/10/01 03:19:26;;;;;;;5.97;3.40;;;12.00;99.90;;;;;;5054759;28;20401;-74
2023/10/01 03:22:15;;;;;;;5.90;3.30;;;12.00;99.90;;;;;;5054835;28;20397;-73
2023/10/01 03:24:44;;;;;;;3.90;2.97;;;12.00;99.90;;;;;;5054533;28;20493;-75
2023/10/01 03:27:24;;;;;;;8.03;3.73;;;12.00;99.90;;;;;;5054455;28;20436;-75
2023/10/01 03:29:54;;;;;;;4.93;3.27;;;12.00;99.90;;;;;;5054732;28;20832;-76
2023/10/01 03:32:29;;;;;;;6.77;3.80;;;12.00;99.90;;;;;;5054507;28;20479;-76
2023/10/01 03:35:04;;;;;;;4.30;3.47;;;11.90;99.90;;;;;;5054732;28;21006;-76
2023/10/01 03:37:37;;;;;;;4.67;3.03;;;11.90;99.90;;;;;;5054282;28;20815;-77
2023/10/01 03:40:10;;;;;;;7.07;4.43;;;12.00;99.90;;;;;;5035538;28;20409;-76
2023/10/01 03:42:37;;;;;;;6.07;3.60;;;11.80;99.90;;;;;;5054347;28;20474;-74
2023/10/01 03:47:57;;;;;;;9.73;4.10;;;11.70;99.90;;;;;;5054131;28;20408;-75
2023/10/01 03:50:25;;;;;;;6.00;3.93;;;11.70;99.90;;;;;;5054332;28;20464;-75
2023/10/01 03:52:52;;;;;;;5.67;3.53;;;11.70;99.90;;;;;;5054381;28;20503;-75
2023/10/01 03:55:28;;;;;;;4.30;3.90;;;11.60;99.90;;;;;;5054239;28;20444;-74
2023/10/01 04:00:34;;;;;;;5.40;3.60;;;11.60;99.90;;;;;;5054561;28;20412;-75
2023/10/01 04:03:00;;;;;;;7.67;4.13;;;11.60;99.90;;;;;;5052992;28;20966;-76
2023/10/01 04:05:34;;;;;;;4.10;3.40;;;11.70;99.90;;;;;;5036170;28;20437;-75
2023/10/01 04:08:08;;;;;;;6.60;4.30;;;11.70;99.90;;;;;;5054268;28;20811;-76
2023/10/01 04:10:38;;;;;;;7.17;4.70;;;11.70;99.90;;;;;;5054083;28;20412;-76
2023/10/01 04:13:13;;;;;;;5.67;4.23;;;11.60;99.90;;;;;;5053900;28;20483;-76
2023/10/01 04:15:41;;;;;;;5.30;3.53;;;11.60;99.90;;;;;;5035703;28;20460;-76
2023/10/01 04:23:32;;;;;;;9.30;6.97;;;11.70;99.90;;;;;;5053753;28;20471;-76
2023/10/01 04:26:00;;;;;;;8.00;5.07;;;11.70;99.90;;;;;;5035661;28;20491;-76
2023/10/01 04:28:27;;;;;;;9.07;5.03;;;11.60;99.90;;;;;;5053452;28;20511;-75
2023/10/01 04:30:52;;;;;;;6.10;4.97;;;11.50;99.90;;;;;;5053714;28;20821;-75
2023/10/01 04:33:22;;;;;;;6.47;4.87;;;11.50;99.90;;;;;;5053534;28;20409;-75
2023/10/01 04:35:55;;;;;;;7.53;4.40;;;11.50;99.90;;;;;;5052938;28;20464;-75
2023/10/01 04:38:32;;;;;;;5.80;3.77;;;11.50;99.90;;;;;;5053201;28;20488;-75
2023/10/01 04:40:59;;;;;;;8.30;4.53;;;11.50;99.90;;;;;;5053452;28;20547;-74
2023/10/01 04:43:26;;;;;;;12.33;8.63;;;11.50;99.90;;;;;;5053380;28;20429;-75
2023/10/01 04:45:52;;;;;;;13.53;8.83;;;11.40;99.90;;;;;;5035328;28;20523;-75
2023/10/01 04:48:22;;;;;;;5.40;4.47;;;11.50;99.90;;;;;;5052993;28;20410;-75
2023/10/01 04:50:55;;;;;;;8.80;5.30;;;11.50;99.90;;;;;;5053171;28;20448;-75
2023/10/01 04:53:22;;;;;;;8.70;4.77;;;11.40;99.90;;;;;;5052650;28;20425;-75
2023/10/01 04:56:05;;;;;;;7.63;4.33;;;11.30;99.90;;;;;;5052842;28;20498;-75
2023/10/01 04:58:32;;;;;;;6.70;5.10;;;11.30;99.90;;;;;;5053049;28;20773;-75
2023/10/01 05:00:58;;;;;;;9.40;5.20;;;11.30;99.90;;;;;;5052976;28;20818;-75
2023/10/01 05:03:38;;;;;;;11.10;5.10;;;11.40;99.90;;;;;;5052760;28;20397;-74
2023/10/01 05:06:12;;;;;;;9.93;5.23;;;11.40;99.90;;;;;;5052709;28;20475;-75
2023/10/01 05:08:38;;;;;;;8.97;5.53;;;11.40;99.90;;;;;;5052826;28;20401;-74
2023/10/01 05:11:12;;;;;;;6.17;4.13;;;11.40;99.90;;;;;;5052771;28;20413;-75
2023/10/01 05:13:42;;;;;;;8.77;4.43;;;11.40;99.90;;;;;;5051358;28;20287;-74
2023/10/01 05:16:12;;;;;;;6.57;3.90;;;11.40;99.90;;;;;;5034201;28;21062;-75
2023/10/01 05:18:43;;;;;;;9.00;5.03;;;11.40;99.90;;;;;;5052420;28;20413;-75
2023/10/01 05:21:14;;;;;;;8.83;5.53;;;11.40;99.90;;;;;;5052441;28;20462;-75
2023/10/01 05:23:40;;;;;;;4.83;3.70;;;11.40;99.90;;;;;;5052495;28;20398;-75
2023/10/01 05:26:08;;;;;;;7.23;4.63;;;11.40;99.90;;;;;;5052049;28;20434;-75
2023/10/01 05:28:36;;;;;;;8.00;3.97;;;11.30;99.90;;;;;;5034558;28;20448;-75
2023/10/01 05:31:07;;;;;;;7.53;4.30;;;11.30;99.90;;;;;;5052388;28;20408;-76
2023/10/01 05:33:33;;;;;;;6.60;4.20;;;11.30;99.90;;;;;;5052269;28;20417;-75
2023/10/01 05:36:03;;;;;;;4.90;4.03;;;11.20;99.90;;;;;;5034144;28;20507;-74
2023/10/01 05:38:33;;;;;;;26.67;13.33;;;11.20;99.90;;;;;;5052068;28;20254;-77
2023/10/01 05:41:03;;;;;;;13.60;8.80;;;11.30;99.90;;;;;;5052088;28;20777;-75
2023/10/01 05:43:37;;;;;;;8.77;5.13;;;11.40;99.90;;;;;;5052144;28;20456;-75
2023/10/01 05:46:08;;;;;;;6.43;4.20;;;11.40;99.90;;;;;;5051955;28;20433;-75
2023/10/01 05:48:39;;;;;;;7.93;4.47;;;11.40;99.90;;;;;;5052124;28;20888;-75
2023/10/01 05:51:20;;;;;;;8.90;5.27;;;11.50;99.90;;;;;;5034262;28;20460;-75
2023/10/01 05:53:46;;;;;;;8.43;4.83;;;11.50;99.90;;;;;;5051740;28;20491;-75
2023/10/01 05:56:17;;;;;;;4.70;3.83;;;11.60;99.90;;;;;;5033868;28;20991;-75
2023/10/01 05:58:44;;;;;;;6.00;4.57;;;11.60;99.90;;;;;;5051941;28;20398;-75
2023/10/01 06:01:16;;;;;;;8.40;4.57;;;11.70;99.90;;;;;;5051938;28;20409;-75
2023/10/01 06:03:44;;;;;;;6.50;4.77;;;11.80;99.90;;;;;;5033285;28;20435;-75
2023/10/01 06:06:25;;;;;;;9.53;4.90;;;11.80;99.90;;;;;;5051389;28;20435;-75
2023/10/01 06:08:58;;;;;;;6.17;4.30;;;11.90;99.90;;;;;;5051793;28;20904;-75
2023/10/01 06:11:38;;;;;;;8.33;5.50;;;11.90;99.90;;;;;;5034316;28;20920;-75
2023/10/01 06:14:08;;;;;;;6.03;5.30;;;12.00;99.90;;;;;;5033987;28;20445;-75
2023/10/01 06:16:40;;;;;;;8.60;5.23;;;12.00;99.90;;;;;;5033454;28;20527;-75
2023/10/01 06:19:11;;;;;;;8.13;5.40;;;12.10;99.90;;;;;;5051896;28;20405;-74
2023/10/01 06:21:39;;;;;;;7.27;5.30;;;12.20;99.90;;;;;;5051763;28;20898;-74
2023/10/01 06:24:07;;;;;;;9.60;5.43;;;12.30;99.90;;;;;;5033873;28;20412;-74
2023/10/01 06:26:36;;;;;;;9.63;5.90;;;12.40;99.90;;;;;;5051401;28;20807;-75
2023/10/01 06:29:11;;;;;;;7.40;5.13;;;12.40;99.90;;;;;;5051619;28;20421;-75
2023/10/01 06:31:48;;;;;;;11.53;6.30;;;12.40;99.90;;;;;;5051679;28;20448;-75
2023/10/01 06:34:24;;;;;;;12.23;7.07;;;12.50;99.90;;;;;;5033765;28;20413;-75
2023/10/01 06:36:58;;;;;;;25.67;12.40;;;12.50;99.90;;;;;;5051214;28;20452;-75
2023/10/01 06:39:28;;;;;;;14.30;7.60;;;12.60;99.90;;;;;;5051634;28;20408;-76
2023/10/01 06:41:53;;;;;;;10.30;6.37;;;12.60;99.90;;;;;;5051513;28;20409;-75
2023/10/01 06:44:19;;;;;;;15.57;7.57;;;12.60;99.90;;;;;;5051580;28;20414;-76
2023/10/01 06:46:47;;;;;;;12.93;6.07;;;12.70;99.90;;;;;;5050657;28;20261;-71
2023/10/01 06:49:12;;;;;;;13.63;7.53;;;12.90;99.90;;;;;;5051458;28;20201;-74
2023/10/01 06:51:44;;;;;;;10.80;5.97;;;13.00;99.90;;;;;;5051429;28;20464;-75
2023/10/01 06:54:14;;;;;;;25.53;8.10;;;13.10;99.90;;;;;;5033421;28;20194;-74
2023/10/01 06:56:47;;;;;;;13.53;6.47;;;13.30;99.90;;;;;;5050764;28;20499;-73
2023/10/01 06:59:13;;;;;;;11.87;7.47;;;13.50;99.90;;;;;;5051422;28;20437;-74
2023/10/01 07:01:46;;;;;;;10.03;6.93;;;13.60;99.90;;;;;;5051288;28;20409;-74
2023/10/01 07:04:15;;;;;;;11.57;5.80;;;13.80;99.90;;;;;;5051391;28;20880;-74
2023/10/01 07:06:44;;;;;;;9.97;6.30;;;13.90;99.90;;;;;;5050988;28;20916;-75
2023/10/01 07:09:32;;;;;;;9.73;5.40;;;14.00;99.90;;;;;;5050154;28;20411;-75
2023/10/01 07:11:58;;;;;;;11.30;6.80;;;14.10;99.90;;;;;;5051261;28;20413;-75
2023/10/01 07:14:38;;;;;;;13.57;6.20;;;14.20;99.90;;;;;;5051546;28;20401;-74
2023/10/01 07:17:08;;;;;;;12.63;6.87;;;14.40;99.90;;;;;;5054699;28;20464;-74
2023/10/01 07:19:33;;;;;;;8.37;5.33;;;14.50;99.90;;;;;;5054931;28;20455;-74
2023/10/01 07:22:06;;;;;;;7.10;5.57;;;14.70;99.90;;;;;;5054593;28;20445;-74
2023/10/01 07:24:33;;;;;;;6.90;5.03;;;14.80;99.90;;;;;;5054812;28;20193;-76
2023/10/01 07:27:11;;;;;;;9.03;5.50;;;14.90;99.90;;;;;;5054553;28;20538;-75
2023/10/01 07:29:42;;;;;;;9.77;6.87;;;15.00;99.90;;;;;;5054700;28;20444;-75
2023/10/01 07:32:08;;;;;;;6.47;4.60;;;15.10;99.90;;;;;;5054680;28;20404;-75
2023/10/01 07:34:35;;;;;;;7.17;4.67;;;15.30;99.90;;;;;;5054411;28;20409;-75
2023/10/01 07:37:04;;;;;;;8.73;5.67;;;15.40;99.90;;;;;;5054214;28;20475;-75
2023/10/01 07:39:37;;;;;;;7.67;5.37;;;15.60;99.90;;;;;;5054517;28;20441;-75
2023/10/01 07:42:10;;;;;;;7.37;4.97;;;15.80;99.90;;;;;;5036290;28;20406;-74
2023/10/01 07:44:36;;;;;;;7.73;4.73;;;15.90;99.90;;;;;;5054288;28;20402;-74
2023/10/01 07:47:03;;;;;;;6.90;4.60;;;16.20;99.90;;;;;;5054157;28;20464;-74
2023/10/01 07:49:46;;;;;;;7.00;4.60;;;16.40;99.90;;;;;;5036457;28;20278;-74
2023/10/01 07:52:13;;;;;;;9.83;5.03;;;16.60;99.90;;;;;;5054161;28;20413;-74
2023/10/01 07:54:39;;;;;;;5.23;3.50;;;16.70;99.90;;;;;;5054076;28;20429;-74
2023/10/01 07:57:08;;;;;;;9.00;4.30;;;16.90;99.90;;;;;;5053923;28;20539;-74
2023/10/01 07:59:34;;;;;;;8.00;4.60;;;17.10;99.90;;;;;;5054181;28;20167;-74
2023/10/01 08:07:22;;;;;;;7.60;4.70;;;18.00;99.90;;;;;;5054146;28;20437;-74
2023/10/01 08:09:51;;;;;;;8.70;4.80;;;18.60;99.90;;;;;;5053959;28;20464;-73
2023/10/01 08:12:19;;;;;;;7.33;4.37;;;18.90;99.90;;;;;;5053755;28;20417;-73
2023/10/01 08:15:15;;;;;;;8.27;5.10;;;19.20;99.90;;;;;;5053795;28;20508;-73
2023/10/01 08:17:34;;;;;;;8.30;3.40;;;19.50;99.90;;;;;;5053377;28;20461;-72
2023/10/01 08:20:14;;;;;;;6.20;3.87;;;20.20;99.90;;;;;;5053806;28;20485;-72
2023/10/01 08:23:12;;;;;;;8.77;4.30;;;21.70;99.90;;;;;;5053610;28;20415;-74
2023/10/01 08:25:42;;;;;;;7.00;4.50;;;24.30;99.90;;;;;;5053267;28;20457;-73
2023/10/01 08:28:29;;;;;;;9.83;6.23;;;27.10;99.90;;;;;;5052825;28;20408;-73
2023/10/01 08:31:20;;;;;;;7.37;3.93;;;29.10;98.20;;;;;;5052993;28;20430;-73
2023/10/01 08:33:51;;;;;;;6.43;5.60;;;31.50;66.70;;;;;;5035446;28;20413;-73
2023/10/01 08:36:24;;;;;;;7.77;5.43;;;33.20;51.40;;;;;;5053003;28;20496;-74
2023/10/01 08:39:20;;;;;;;6.40;4.97;;;34.30;47.10;;;;;;5053427;28;20409;-73
2023/10/01 08:41:52;;;;;;;7.53;4.73;;;35.60;43.80;;;;;;5053143;28;21022;-73
2023/10/01 08:44:30;;;;;;;8.97;5.73;;;37.20;42.80;;;;;;5053293;28;20405;-73
2023/10/01 08:47:21;;;;;;;6.80;5.63;;;38.80;39.30;;;;;;5053019;28;20416;-72
2023/10/01 08:49:49;;;;;;;7.60;4.77;;;40.00;34.70;;;;;;5053079;28;20413;-73
2023/10/01 08:52:19;;;;;;;7.00;5.57;;;40.90;33.90;;;;;;5053000;28;20771;-73
2023/10/01 08:54:45;;;;;;;7.60;4.70;;;41.70;32.00;;;;;;5052764;28;20481;-74
2023/10/01 08:57:18;;;;;;;6.20;5.30;;;42.50;30.30;;;;;;5052770;28;20511;-74
2023/10/01 08:59:46;;;;;;;8.23;5.73;;;43.50;30.60;;;;;;5053051;28;20492;-74
2023/10/01 09:02:18;;;;;;;8.50;6.17;;;44.00;28.80;;;;;;5052817;28;20397;-74
2023/10/01 09:04:45;;;;;;;11.73;6.43;;;43.30;28.30;;;;;;5034874;28;20425;-74
2023/10/01 09:07:18;;;;;;;9.23;6.80;;;43.10;27.70;;;;;;5052544;28;20774;-74
2023/10/01 09:10:05;;;;;;;6.90;5.40;;;42.90;27.10;;;;;;5052761;28;20440;-74
2023/10/01 09:12:45;;;;;;;8.50;6.67;;;43.40;27.80;;;;;;5052936;28;20943;-74
2023/10/01 09:15:22;;;;;;;10.37;6.10;;;44.00;27.10;;;;;;5052518;28;20396;-75
2023/10/01 09:17:57;;;;;;;6.47;4.63;;;44.80;27.10;;;;;;5052296;28;20460;-74
2023/10/01 09:21:06;;;;;;;5.53;4.93;;;45.20;26.40;;;;;;5034656;28;20413;-74
2023/10/01 09:23:54;;;;;;;5.63;5.00;;;46.10;26.60;;;;;;5052206;28;20475;-74
2023/10/01 09:26:37;;;;;;;6.93;5.60;;;45.80;25.60;;;;;;5052172;28;20435;-75
2023/10/01 09:29:13;;;;;;;9.20;5.60;;;45.50;25.10;;;;;;5052526;28;20424;-74
2023/10/01 09:31:58;;;;;;;9.30;6.20;;;45.80;25.00;;;;;;5052430;28;20451;-74
2023/10/01 09:34:31;;;;;;;6.40;4.63;;;45.80;24.60;;;;;;5034137;28;20384;-74
2023/10/01 09:37:11;;;;;;;6.60;5.60;;;46.90;24.90;;;;;;5033783;28;20438;-74
2023/10/01 09:39:41;;;;;;;8.17;6.10;;;47.20;24.70;;;;;;5051435;28;20397;-74
2023/10/01 09:42:25;;;;;;;6.03;5.17;;;47.70;24.30;;;;;;5050961;28;20388;-74
2023/10/01 09:44:54;;;;;;;7.93;5.70;;;47.70;23.70;;;;;;5052044;28;20458;-74
2023/10/01 09:47:27;;;;;;;8.70;6.67;;;48.00;23.10;;;;;;5051922;28;20376;-74
2023/10/01 09:49:54;;;;;;;7.00;6.23;;;48.10;23.00;;;;;;5052264;28;20399;-71
2023/10/01 09:52:27;;;;;;;5.57;4.27;;;48.00;22.70;;;;;;5051974;28;20459;-72
2023/10/01 09:55:06;;;;;;;7.53;6.10;;;48.80;23.60;;;;;;5051470;28;20456;-71
2023/10/01 09:57:34;;;;;;;8.40;6.43;;;49.30;23.30;;;;;;5051836;28;20850;-72
2023/10/01 10:00:17;;;;;;;8.57;6.10;;;49.50;22.90;;;;;;5052009;28;20487;-72
2023/10/01 10:02:51;;;;;;;6.50;5.80;;;50.00;22.40;;;;;;5052002;28;20357;-72
2023/10/01 10:05:26;;;;;;;6.10;5.37;;;50.60;22.30;;;;;;5051935;28;20435;-71
2023/10/01 10:08:13;;;;;;;6.17;5.10;;;51.30;22.80;;;;;;5051801;28;20713;-71
2023/10/01 10:10:52;;;;;;;6.90;5.23;;;51.80;22.00;;;;;;5051903;28;20372;-72
2023/10/01 10:13:45;;;;;;;6.40;5.80;;;52.20;21.80;;;;;;5051804;28;20412;-72
2023/10/01 10:19:11;;;;;;;6.97;6.27;;;52.50;20.70;;;;;;5052055;28;20866;-71
2023/10/01 10:24:47;;;;;;;7.07;5.90;;;53.50;21.40;;;;;;5051672;28;20392;-71
2023/10/01 10:27:35;;;;;;;6.50;5.90;;;54.10;20.80;;;;;;5051508;28;20435;-72
2023/10/01 10:30:01;;;;;;;8.83;7.10;;;54.20;20.30;;;;;;5018705;28;20822;-71
2023/10/01 10:32:28;;;;;;;7.47;6.40;;;53.30;19.00;;;;;;5033729;28;20431;-71
2023/10/01 10:35:15;;;;;;;8.67;6.67;;;52.20;19.20;;;;;;5051541;28;20289;-71
2023/10/01 10:37:56;;;;;;;7.00;6.00;;;51.80;20.10;;;;;;5051277;28;20452;-71
2023/10/01 10:40:23;;;;;;;9.00;6.33;;;50.90;20.00;;;;;;5051465;28;20742;-71
2023/10/01 10:43:02;;;;;;;8.73;7.50;;;50.20;20.40;;;;;;5051385;28;20380;-70
2023/10/01 10:45:42;;;;;;;9.37;7.23;;;49.50;20.60;;;;;;5051361;28;20417;-71
2023/10/01 10:48:08;;;;;;;7.43;6.10;;;48.60;21.00;;;;;;5033470;28;20780;-71
2023/10/01 10:50:57;;;;;;;6.30;5.00;;;48.50;21.90;;;;;;5053759;28;20380;-71
2023/10/01 10:53:39;;;;;;;8.43;6.13;;;48.70;21.80;;;;;;5055283;28;20407;-70
2023/10/01 10:56:07;;;;;;;8.30;6.40;;;48.80;21.10;;;;;;5054946;28;20454;-71
2023/10/01 10:58:53;;;;;;;6.80;6.10;;;49.40;21.10;;;;;;5055238;28;20871;-71
2023/10/01 11:01:19;;;;;;;6.70;5.57;;;48.60;20.10;;;;;;5055187;28;20412;-71
2023/10/01 11:03:57;;;;;;;8.87;6.57;;;47.50;20.90;;;;;;5070483;28;20874;-70
2023/10/01 11:06:29;;;;;;;7.50;6.10;;;47.30;21.10;;;;;;5074822;28;20429;-70
2023/10/01 11:08:56;;;;;;;9.50;6.90;;;47.90;22.00;;;;;;5074779;28;20408;-71
2023/10/01 11:11:24;;;;;;;8.63;6.57;;;48.60;21.40;;;;;;5074871;28;20760;-71
2023/10/01 11:14:02;;;;;;;12.10;6.10;;;49.30;21.20;;;;;;5074833;28;20944;-70
2023/10/01 11:16:38;;;;;;;8.43;6.37;;;50.40;21.50;;;;;;5074679;28;20981;-70
2023/10/01 11:19:15;;;;;;;8.20;6.67;;;51.10;20.90;;;;;;5074845;28;20406;-70
2023/10/01 11:21:44;;;;;;;12.57;6.87;;;51.90;20.10;;;;;;5075044;28;20491;-73
2023/10/01 11:24:13;;;;;;;8.80;7.70;;;52.10;19.40;;;;;;5057327;28;20394;-71
2023/10/01 11:27:11;;;;;;;7.43;6.70;;;52.60;19.80;;;;;;5056140;28;20415;-71
2023/10/01 11:29:39;;;;;;;8.60;5.93;;;51.90;18.90;;;;;;5074478;28;20382;-71
2023/10/01 11:32:07;;;;;;;8.27;7.40;;;51.50;19.30;;;;;;5074398;28;20411;-71
2023/10/01 11:34:46;;;;;;;10.60;6.40;;;51.80;19.40;;;;;;5074342;28;20423;-71
2023/10/01 11:37:18;;;;;;;7.30;6.60;;;51.80;19.10;;;;;;5074210;28;20793;-71
2023/10/01 11:39:52;;;;;;;9.17;6.90;;;50.60;18.90;;;;;;5074396;28;20976;-71
2023/10/01 11:42:38;;;;;;;11.33;6.90;;;50.10;19.30;;;;;;5074361;28;20382;-72
2023/10/01 11:45:28;;;;;;;10.70;7.90;;;50.60;20.00;;;;;;5074228;28;20403;-70
2023/10/01 11:48:19;;;;;;;7.43;5.90;;;50.20;19.30;;;;;;5075157;28;20750;-70
2023/10/01 11:50:51;;;;;;;7.17;6.10;;;50.60;20.40;;;;;;5056379;28;20392;-70
2023/10/01 11:53:28;;;;;;;9.30;6.70;;;51.50;20.30;;;;;;5074038;28;20435;-71
2023/10/01 11:56:01;;;;;;;9.40;6.63;;;51.80;19.40;;;;;;5055965;28;20434;-71
2023/10/01 11:58:27;;;;;;;8.27;6.50;;;52.50;20.00;;;;;;5073891;28;20487;-71
2023/10/01 12:00:56;;;;;;;9.47;7.23;;;52.40;18.60;;;;;;5073615;28;20409;-71
2023/10/01 12:03:22;;;;;;;8.73;7.83;;;52.40;18.70;;;;;;5073551;28;20379;-71
2023/10/01 12:05:48;;;;;;;10.07;7.80;;;52.40;18.40;;;;;;5056444;28;20472;-71
2023/10/01 12:08:18;;;;;;;9.27;7.50;;;52.30;18.60;;;;;;5057185;28;20444;-71
2023/10/01 12:10:44;;;;;;;8.30;7.37;;;51.90;18.70;;;;;;5073836;28;20605;-72
2023/10/01 12:13:11;;;;;;;8.20;6.90;;;52.40;19.40;;;;;;5055795;28;20469;-71
2023/10/01 12:15:51;;;;;;;7.90;6.50;;;53.10;19.40;;;;;;5074778;28;20416;-71
2023/10/01 12:18:17;;;;;;;7.47;6.77;;;53.70;19.30;;;;;;5075268;28;20405;-72
2023/10/01 12:20:51;;;;;;;7.70;6.97;;;54.40;19.40;;;;;;5057430;28;20391;-71
2023/10/01 12:23:21;;;;;;;14.33;12.93;;;55.00;18.80;;;;;;5074499;28;20419;-71
2023/10/01 12:25:52;;;;;;;12.20;9.27;;;55.00;18.20;;;;;;5056773;28;20430;-71
2023/10/01 12:28:25;;;;;;;9.73;8.53;;;54.90;18.00;;;;;;5074766;28;20370;-71
2023/10/01 12:30:57;;;;;;;13.57;9.63;;;55.30;18.70;;;;;;5074653;28;20490;-71
2023/10/01 12:33:40;;;;;;;9.73;8.67;;;55.60;18.50;;;;;;5074203;28;20875;-72
2023/10/01 12:39:16;;;;;;;10.70;8.70;;;53.50;17.50;;;;;;5074013;28;20418;-72
2023/10/01 12:44:25;;;;;;;10.67;8.27;;;51.60;17.40;;;;;;5073513;28;20408;-71
2023/10/01 12:47:15;;;;;;;9.80;8.03;;;51.80;18.50;;;;;;5072977;28;20410;-70
2023/10/01 12:49:42;;;;;;;9.37;7.80;;;51.80;18.10;;;;;;5074870;28;20803;-71
2023/10/01 12:52:09;;;;;;;9.20;8.30;;;52.20;18.90;;;;;;5074803;28;20434;-71
2023/10/01 12:54:38;;;;;;;9.90;7.83;;;51.80;17.60;;;;;;5073177;28;20411;-71
2023/10/01 12:57:12;;;;;;;10.00;8.10;;;51.50;17.80;;;;;;5072705;28;21011;-71
2023/10/01 12:59:49;;;;;;;9.43;8.10;;;51.30;17.90;;;;;;5073514;28;20379;-72
2023/10/01 13:05:20;;;;;;;9.60;7.43;;;51.70;17.60;;;;;;5073297;28;20410;-72
2023/10/01 13:07:47;;;;;;;9.90;8.10;;;51.50;17.60;;;;;;5073555;28;20383;-70
2023/10/01 13:10:16;;;;;;;9.70;7.73;;;51.70;18.40;;;;;;5072834;28;20375;-70
2023/10/01 13:12:57;;;;;;;10.43;8.20;;;51.90;18.20;;;;;;5072502;28;20499;-70
2023/10/01 13:15:29;;;;;;;9.17;8.17;;;51.70;18.30;;;;;;5072575;28;20822;-71
2023/10/01 13:18:00;;;;;;;9.00;7.30;;;51.70;18.30;;;;;;5072617;28;20452;-70
2023/10/01 13:20:28;;;;;;;10.73;6.73;;;51.40;18.20;;;;;;5072660;28;20740;-70
2023/10/01 13:23:07;;;;;;;10.10;7.40;;;51.20;18.30;;;;;;5073095;28;20847;-70
2023/10/01 13:25:40;;;;;;;10.27;7.70;;;50.90;18.20;;;;;;5072310;28;20445;-70
2023/10/01 13:28:08;;;;;;;8.57;7.57;;;51.00;19.00;;;;;;5072807;28;20438;-72
2023/10/01 13:31:03;;;;;;;9.83;7.63;;;50.80;18.50;;;;;;5072610;28;20865;-71
2023/10/01 13:33:53;;;;;;;11.97;9.20;;;51.00;18.90;;;;;;5072935;28;20269;-71
2023/10/01 13:36:25;;;;;;;9.47;8.47;;;50.90;19.10;;;;;;5072424;28;20499;-71
2023/10/01 13:39:12;;;;;;;9.53;8.60;;;50.80;18.50;;;;;;5072709;28;20909;-70
2023/10/01 14:08:43;;;;;;;9.70;7.13;;;47.70;19.50;;;;;;5071971;28;20373;-72
2023/10/01 14:11:09;;;;;;;10.10;7.60;;;47.80;20.50;;;;;;5071791;28;20363;-72
2023/10/01 14:13:35;;;;;;;9.43;7.83;;;48.10;21.00;;;;;;5071752;28;20413;-72
2023/10/01 14:16:40;;;;;;;15.10;7.77;;;48.30;20.30;;;;;;5071717;28;20422;-72